Oak Grove (212) Station Data

Red Flag Warning: No
Fire Weather Zone: 258
SDGE Region: Ramona
Lat/Lon: 33.392/-116.788

Observations

Time Wind Speed/Gust Temp(F) RH Fuel Moist Fuel Temp(F) Dewpt(F) Tmax(F) Tmin(F) Accum Precip 10-min Precip SL Press(mb)
5/24 8:20am 155 3 G 4 70° 48% - - 49° 70.6° 52.3° - - -
5/24 8:10am 124 4 G 6 69° 50% - - 50° 69.8° 52.3° - - -
5/24 8:00am 125 4 G 7 69° 50% - - 49° 69.2° 52.3° - - -
5/24 7:50am 94 4 G 6 68° 50% - - 49° 69.2° 52.3° - - -
5/24 7:40am 92 1 G 4 66° 57% - - 51° 68.2° 52.3° - - -
5/24 7:30am 120 2 G 3 63° 61% - - 49° 64.6° 52.3° - - -
5/24 7:20am 146 2 G 3 62° 60% - - 48° 62.7° 52.3° - - -
5/24 7:10am 151 2 G 3 61° 60% - - 47° 61.9° 52.3° - - -
5/24 7:00am 156 3 G 3 61° 62% - - 47° 61.5° 52.3° - - -
5/24 6:50am 151 3 G 4 60° 62% - - 47° 61.2° 52.3° - - -
5/24 6:40am 143 2 G 3 59° 61% - - 46° 61.2° 52.3° - - -
5/24 6:30am 147 3 G 4 58° 62% - - 45° 61.2° 52.3° - - -
5/24 6:20am 139 4 G 5 56° 66% - - 45° 61.2° 52.3° - - -
5/24 6:10am 145 4 G 5 55° 67% - - 44° 61.2° 52.3° - - -
5/24 6:00am 134 5 G 7 56° 65% - - 45° 61.2° 52.3° - - -
5/24 5:50am 129 5 G 8 55° 69% - - 45° 61.2° 52.3° - - -
5/24 5:40am 112 4 G 6 54° 72% - - 45° 61.2° 52.3° - - -
5/24 5:30am 105 3 G 5 53° 72% - - 45° 61.2° 52.6° - - -
5/24 5:20am 146 4 G 4 55° 67% - - 44° 61.2° 52.6° - - -
5/24 5:10am 156 4 G 5 54° 69% - - 44° 61.2° 52.6° - - -
5/24 5:00am 138 3 G 4 55° 68% - - 45° 61.2° 52.6° - - -
5/24 4:50am 126 1 G 3 54° 70% - - 45° 61.2° 52.6° - - -
5/24 4:40am 145 3 G 5 54° 68% - - 44° 61.2° 52.6° - - -
5/24 4:30am 151 4 G 4 55° 66% - - 44° 61.2° 52.6° - - -
5/24 4:20am 145 3 G 4 55° 68% - - 45° 61.2° 52.6° - - -
5/24 4:10am 145 2 G 3 54° 69% - - 44° 61.2° 52.6° - - -
5/24 4:00am 128 1 G 3 54° 70% - - 44° 61.2° 52.6° - - -
5/24 3:50am 118 3 G 6 54° 70% - - 44° 61.2° 52.6° - - -
5/24 3:40am 124 4 G 6 54° 70% - - 45° 61.2° 52.6° - - -
5/24 3:30am 137 3 G 4 54° 70% - - 44° 61.2° 52.6° - - -
5/24 3:20am 89 2 G 4 54° 69% - - 44° 61.2° 52.8° - - -
5/24 3:10am 146 2 G 4 55° 65% - - 44° 61.2° 54.1° - - -
5/24 3:00am 149 3 G 4 55° 66% - - 44° 61.2° 54.9° - - -
5/24 2:50am 139 2 G 2 56° 66% - - 45° 61.2° 55.1° - - -
5/24 2:40am 139 3 G 5 56° 66% - - 45° 61.2° 55.1° - - -
5/24 2:30am 137 3 G 4 57° 63% - - 44° 61.2° 56.1° - - -
5/24 2:20am 147 3 G 4 57° 61% - - 44° 61.2° 56.4° - - -
5/24 2:10am 158 3 G 4 58° 61% - - 45° 61.2° 57.6° - - -
5/24 2:00am 152 4 G 5 59° 60% - - 45° 61.2° 57.9° - - -
5/24 1:50am 150 4 G 5 59° 60% - - 46° 61.2° 57.9° - - -
5/24 1:40am 132 3 G 4 59° 61% - - 45° 61.2° 57.9° - - -
5/24 1:30am 139 3 G 5 59° 60% - - 45° 61.2° 57.9° - - -
5/24 1:20am 137 3 G 4 59° 60% - - 45° 61.2° 58.5° - - -
5/24 1:10am 146 3 G 4 59° 59% - - 45° 61.2° 58.5° - - -
5/24 1:00am 155 4 G 5 60° 58% - - 45° 61.2° 58.8° - - -
5/24 12:50am 156 3 G 5 60° 58% - - 45° 61.2° 58.9° - - -
5/24 12:40am 133 3 G 5 60° 57% - - 45° 61.2° 59.4° - - -
5/24 12:30am 143 3 G 4 60° 56% - - 45° 61.2° 59.6° - - -
5/24 12:20am 141 2 G 3 60° 55% - - 44° 61.1° 59.8° - - -
5/24 12:10am 150 3 G 4 60° 54% - - 44° 61.1° 59.8° - - -
5/24 12:00am 131 3 G 4 60° 54% - - 44° 94.4° 54.8° - - -
5/23 11:50pm 131 3 G 3 61° 53% - - 44° 94.4° 54.8° - - -
5/23 11:40pm 135 3 G 4 60° 54% - - 43° 94.4° 54.8° - - -
5/23 11:30pm 135 4 G 5 61° 52% - - 43° 94.4° 54.8° - - -
5/23 11:20pm 150 3 G 5 62° 51% - - 43° 94.4° 54.8° - - -
5/23 11:10pm 156 3 G 3 62° 51% - - 43° 94.4° 54.8° - - -
5/23 11:00pm 160 1 G 3 62° 50% - - 43° 94.4° 54.8° - - -
5/23 10:50pm 142 3 G 4 62° 50% - - 43° 94.4° 54.8° - - -
5/23 10:40pm 118 3 G 5 62° 50% - - 43° 94.4° 54.8° - - -
5/23 10:30pm 128 2 G 3 62° 50% - - 43° 94.4° 54.8° - - -
5/23 10:20pm 141 2 G 3 63° 48% - - 43° 94.4° 54.8° - - -
5/23 10:10pm 115 2 G 3 62° 49% - - 43° 94.4° 54.8° - - -
5/23 10:00pm 92 1 G 2 65° 45% - - 43° 94.4° 54.8° - - -
5/23 9:50pm 39 1 G 2 64° 45% - - 43° 94.4° 54.8° - - -
5/23 9:40pm 121 3 G 4 66° 42% - - 42° 94.4° 54.8° - - -
5/23 9:30pm 149 2 G 3 67° 41% - - 42° 94.4° 54.8° - - -
5/23 9:20pm 151 1 G 2 67° 41% - - 43° 94.4° 54.8° - - -
5/23 9:10pm 144 2 G 4 67° 43% - - 43° 94.4° 54.8° - - -
5/23 9:00pm 75 3 G 4 67° 43% - - 44° 94.4° 54.8° - - -
5/23 8:50pm 108 3 G 4 70° 38% - - 43° 94.4° 54.8° - - -
5/23 8:40pm 160 3 G 5 72° 36% - - 43° 94.4° 54.8° - - -
5/23 8:30pm 156 3 G 5 72° 35% - - 44° 94.4° 54.8° - - -
5/23 8:20pm 153 2 G 2 74° 35% - - 44° 94.4° 54.8° - - -
5/23 8:10pm 205 1 G 2 75° 33% - - 44° 94.4° 54.8° - - -
5/23 8:00pm 206 2 G 5 76° 31% - - 43° 94.4° 54.8° - - -
5/23 7:50pm 233 4 G 5 77° 30% - - 43° 94.4° 54.8° - - -
5/23 7:40pm 237 4 G 5 79° 29% - - 44° 94.4° 54.8° - - -
5/23 7:30pm 235 3 G 4 79° 29% - - 44° 94.4° 54.8° - - -
5/23 7:20pm 271 4 G 7 81° 26% - - 43° 94.4° 54.8° - - -
5/23 7:10pm 294 6 G 11 82° 24% - - 42° 94.4° 54.8° - - -
5/23 7:00pm 312 7 G 9 83° 23% - - 41° 94.4° 54.8° - - -
5/23 6:50pm 302 7 G 10 83° 22% - - 41° 94.4° 54.8° - - -
5/23 6:40pm 315 7 G 10 84° 21% - - 40° 94.4° 54.8° - - -
5/23 6:30pm 307 8 G 12 85° 21% - - 40° 94.4° 54.8° - - -
5/23 6:20pm 303 9 G 14 85° 21% - - 40° 94.4° 54.8° - - -
5/23 6:10pm 301 10 G 14 85° 21% - - 40° 94.4° 54.8° - - -
5/23 6:00pm 304 9 G 14 85° 20% - - 40° 94.4° 54.8° - - -
5/23 5:50pm 314 10 G 14 86° 20% - - 40° 94.4° 54.8° - - -
5/23 5:40pm 314 11 G 14 86° 20% - - 40° 94.4° 54.8° - - -
5/23 5:30pm 301 11 G 17 86° 21% - - 41° 94.4° 54.8° - - -
5/23 5:20pm 304 11 G 17 86° 20% - - 41° 94.4° 54.8° - - -
5/23 5:10pm 315 12 G 16 87° 20% - - 41° 94.4° 54.8° - - -
5/23 5:00pm 313 13 G 19 87° 20% - - 41° 94.4° 54.8° - - -
5/23 4:50pm 314 12 G 17 88° 19% - - 40° 94.4° 54.8° - - -
5/23 4:40pm 315 13 G 19 88° 19% - - 41° 94.4° 54.8° - - -
5/23 4:30pm 318 15 G 20 88° 20% - - 41° 94.4° 54.8° - - -
5/23 4:20pm 323 14 G 22 89° 19% - - 41° 94.4° 54.8° - - -
5/23 4:10pm 323 15 G 22 90° 18% - - 41° 94.4° 54.8° - - -
5/23 4:00pm 320 13 G 21 90° 18% - - 41° 94.4° 54.8° - - -
5/23 3:50pm 322 14 G 21 91° 18% - - 41° 94.4° 54.8° - - -
5/23 3:40pm 317 14 G 20 90° 16% - - 39° 94.4° 54.8° - - -
5/23 3:30pm 311 15 G 22 90° 14% - - 35° 94.4° 54.8° - - -
5/23 3:20pm 315 14 G 20 91° 15% - - 36° 94.4° 54.8° - - -
5/23 3:10pm 318 14 G 23 91° 15% - - 37° 94.4° 54.8° - - -
5/23 3:00pm 322 13 G 21 92° 15% - - 37° 94.4° 54.8° - - -
5/23 2:50pm 319 13 G 20 92° 15% - - 37° 94.4° 54.8° - - -
5/23 2:40pm 326 12 G 19 92° 15% - - 37° 94.4° 54.8° - - -
5/23 2:30pm 310 13 G 20 92° 15% - - 37° 94.4° 54.8° - - -
5/23 2:20pm 316 13 G 20 91° 15% - - 38° 94.4° 54.8° - - -
5/23 2:10pm 321 13 G 21 91° 16% - - 39° 94.4° 54.8° - - -
5/23 2:00pm 320 15 G 23 91° 16% - - 39° 94.4° 54.8° - - -
5/23 1:50pm 313 13 G 20 92° 16% - - 39° 94.4° 54.8° - - -
5/23 1:40pm 302 13 G 19 93° 16% - - 40° 94.4° 54.8° - - -
5/23 1:30pm 298 15 G 23 92° 16% - - 39° 94.4° 54.8° - - -
5/23 1:20pm 301 12 G 21 93° 15% - - 39° 94.4° 54.8° - - -
5/23 1:10pm 292 11 G 19 92° 15% - - 38° 94.3° 54.8° - - -
5/23 1:00pm 300 13 G 22 93° 15% - - 39° 94.3° 54.8° - - -
5/23 12:50pm 305 14 G 19 92° 15% - - 39° 94.2° 54.8° - - -
5/23 12:40pm 295 12 G 20 93° 16% - - 39° 94.2° 54.8° - - -
5/23 12:30pm 289 10 G 19 92° 15% - - 38° 94° 54.8° - - -
5/23 12:20pm 305 7 G 16 92° 15% - - 37° 94° 54.8° - - -
5/23 12:10pm 130 3 G 10 93° 12% - - 33° 94° 54.8° - - -
5/23 12:00pm 159 4 G 13 92° 15% - - 37° 94° 54.8° - - -
5/23 11:50am 282 5 G 12 92° 15% - - 38° 94° 54.8° - - -
5/23 11:40am 258 4 G 9 92° 14% - - 36° 94° 54.8° - - -
5/23 11:30am 198 6 G 11 93° 13% - - 34° 94° 54.8° - - -
5/23 11:20am 233 8 G 14 92° 12% - - 31° 93.3° 54.8° - - -
5/23 11:10am 256 7 G 15 92° 13% - - 33° 93.1° 54.8° - - -
5/23 11:00am 234 3 G 10 91° 13% - - 33° 91.7° 54.8° - - -
5/23 10:50am 267 3 G 9 91° 15% - - 37° 91.5° 54.8° - - -
5/23 10:40am 259 4 G 8 90° 15% - - 37° 91.3° 54.8° - - -
5/23 10:30am 275 5 G 9 89° 16% - - 38° 89.9° 54.8° - - -
5/23 10:20am 283 4 G 8 88° 17% - - 38° 88.9° 54.8° - - -
5/23 10:10am 307 5 G 8 88° 18% - - 39° 88.8° 54.8° - - -
5/23 10:00am 295 6 G 9 86° 19% - - 39° 87.5° 54.8° - - -
5/23 9:50am 300 5 G 8 86° 19% - - 40° 87.1° 54.8° - - -
5/23 9:40am 283 4 G 8 85° 22% - - 42° 86.7° 54.8° - - -
5/23 9:30am 294 4 G 7 85° 23% - - 43° 85.3° 54.8° - - -
5/23 9:20am 302 5 G 8 84° 23% - - 42° 85.2° 54.8° - - -
5/23 9:10am 279 5 G 8 84° 24% - - 43° 84.7° 54.8° - - -
5/23 9:00am 285 3 G 7 84° 24% - - 43° 84.7° 54.8° - - -
5/23 8:50am 288 2 G 5 83° 25% - - 44° 84.2° 54.8° - - -
5/23 8:40am 143 1 G 3 82° 27% - - 44° 83.6° 54.8° - - -
5/23 8:30am 137 1 G 3 82° 27% - - 45° 83° 54.8° - - -
5/23 8:20am 21 1 G 1 81° 28% - - 45° 82.4° 54.8° - - -
5/23 8:10am 51 1 G 2 78° 34% - - 47° 79.8° 54.8° - - -
5/23 8:00am 30 1 G 2 77° 36% - - 48° 78.1° 54.8° - - -
5/23 7:50am 121 1 G 1 74° 41% - - 49° 75.5° 54.8° - - -
5/23 7:40am 153 1 G 3 71° 42% - - 47° 72.6° 54.8° - - -
5/23 7:30am 160 2 G 3 69° 46% - - 48° 70.6° 54.8° - - -
5/23 7:20am 158 1 G 2 67° 49% - - 47° 68.7° 54.8° - - -
5/23 7:10am 130 2 G 3 65° 53% - - 47° 66.2° 54.8° - - -
5/23 7:00am 148 2 G 3 63° 55% - - 46° 64.2° 54.8° - - -
5/23 6:50am 145 2 G 3 61° 57% - - 45° 61.7° 54.8° - - -
5/23 6:40am 117 2 G 3 59° 57% - - 44° 61.7° 54.8° - - -
5/23 6:30am 150 3 G 4 59° 57% - - 44° 61.7° 54.8° - - -
5/23 6:20am 161 3 G 4 59° 56% - - 43° 61.7° 54.8° - - -
5/23 6:10am 116 2 G 4 58° 57% - - 43° 61.7° 54.8° - - -
5/23 6:00am 141 3 G 4 58° 57% - - 43° 61.7° 54.8° - - -